Aérodrome :
LOGIN :

S'inscrire | Disclaimer

   EN    FR    IT 

 










Légende :    VFR   VFR Marginal   IFR   IFR Intensif   IFR Très Intensif
Visi : 
Plafond : 
>= 8 km
>= 3000ft
5 à 8 km
1000 à 3000 ft
1500m à 5 km
500 à 1000 ft
800 à 1500m
200 à 500 ft
< 800m
< 200 ft
Symboles :   Orages  Brouillard  Fortes neiges  Fortes précipitations  Vent > 20 kt
SIGMETs :   Divers  Orages  Givrage  Turbulence  Onde Orograph.  Cendres Volcan.






- Altitude de l'aérodrome : 1768 ft


LEHC - Huesca Pirineos

DERNIER METAR :
  • 241800Z AUTO VRB02KT CAVOK 13/05 Q1021

METARs EXPIRÉS :
  • 241730Z AUTO 24005KT CAVOK 14/05 Q1021
  • 241700Z AUTO 25009KT CAVOK 16/06 Q1021
  • 241630Z AUTO 26008KT 230V290 CAVOK 17/05 Q1021
  • 241600Z 25010KT CAVOK 17/05 Q1022
  • 241530Z 26010KT 230V290 CAVOK 18/04 Q1022

TAF TAF LEHC
Valide du 24 à 15h jusqu'au 25 à 15h UTC


241400Z 2415/2515 25008KT CAVOK TX16/2515Z TN04/2506Z
BECMG 2418/2420 VRB03KT
BECMG 2509/2511 29020G35KT



MET'MAP, la Météo Aéronautique d'un coup d'oeil ! - Copyright ORBIFLY Décembre 2007 - Disclaimer

ORBIFLY MET'MAP TEAM :

Programmation & Développement : Alexandra Zaïnal
Sur une idée originale de : Baudouin d'Aumeries
Assistance à la programmation : Marc-Olivier Méhu
Soutien technique & logistique : Manuel Goepfert

Contact : metmap@orbifly.com




SOURCES & CREDITS :

   NOAA